createdAt,value
2019-03-17T00:00:06.354Z,7.97
2019-03-17T00:02:35.671Z,7.90
2019-03-17T00:05:05.494Z,4.70
2019-03-17T00:07:34.855Z,7.87
2019-03-17T00:10:04.415Z,8.00
2019-03-17T00:12:33.741Z,8.47
2019-03-17T00:15:05.766Z,5.57
2019-03-17T00:17:34.347Z,8.40
2019-03-17T00:20:04.009Z,7.83
2019-03-17T00:22:33.431Z,7.93
2019-03-17T00:25:09.249Z,9.57
2019-03-17T00:27:33.832Z,9.23
2019-03-17T00:30:03.221Z,7.10
2019-03-17T00:32:32.579Z,5.33
2019-03-17T00:35:01.904Z,8.90
2019-03-17T00:37:31.380Z,7.90
2019-03-17T00:40:00.806Z,9.43
2019-03-17T00:42:32.928Z,18.03
2019-03-17T00:45:01.927Z,8.50
2019-03-17T00:47:31.331Z,8.63
2019-03-17T00:50:00.754Z,9.67
2019-03-17T00:52:30.048Z,12.57
2019-03-17T00:54:59.441Z,7.93
2019-03-17T00:57:28.899Z,9.30
2019-03-17T00:59:58.149Z,8.00
2019-03-17T01:02:27.699Z,8.43
2019-03-17T01:04:57.117Z,8.03
2019-03-17T01:07:26.487Z,6.73
2019-03-17T01:09:55.806Z,6.53
2019-03-17T01:12:25.242Z,12.23
2019-03-17T01:14:54.680Z,8.57
2019-03-17T01:17:23.944Z,10.20
2019-03-17T01:19:53.370Z,7.33
2019-03-17T01:22:22.747Z,11.63
2019-03-17T01:24:52.071Z,6.00
2019-03-17T01:27:21.514Z,7.40
2019-03-17T01:29:50.901Z,10.10
2019-03-17T01:32:20.346Z,8.97
2019-03-17T01:34:49.752Z,7.70
2019-03-17T01:37:19.112Z,6.30
2019-03-17T01:39:48.452Z,6.57
2019-03-17T01:42:18.603Z,8.03
2019-03-17T01:44:48.135Z,7.40
2019-03-17T01:47:17.366Z,8.10
2019-03-17T01:49:46.656Z,11.20
2019-03-17T01:52:16.076Z,11.73
2019-03-17T01:54:45.387Z,8.03
2019-03-17T01:57:14.689Z,7.27
2019-03-17T01:59:44.027Z,9.53
2019-03-17T02:02:13.395Z,10.67
2019-03-17T02:04:42.740Z,8.23
2019-03-17T02:07:12.154Z,7.97
2019-03-17T02:09:41.531Z,5.90
2019-03-17T02:12:10.853Z,10.03
2019-03-17T02:14:40.204Z,10.70
2019-03-17T02:17:09.526Z,7.90
2019-03-17T02:19:38.846Z,6.67
2019-03-17T02:22:08.310Z,7.93
2019-03-17T02:24:37.633Z,10.03
2019-03-17T02:27:07.003Z,11.07
2019-03-17T02:29:36.358Z,8.17
2019-03-17T02:32:05.823Z,9.33
2019-03-17T02:34:35.169Z,10.30
2019-03-17T02:37:04.553Z,10.53
2019-03-17T02:39:33.940Z,7.50
2019-03-17T02:42:03.349Z,9.20
2019-03-17T02:44:32.743Z,9.30
2019-03-17T02:47:02.068Z,13.30
2019-03-17T02:49:31.446Z,10.63
2019-03-17T02:52:00.772Z,12.77
2019-03-17T02:54:30.555Z,10.07
2019-03-17T02:56:59.968Z,6.33
2019-03-17T02:59:29.319Z,5.27
2019-03-17T03:01:59.573Z,3.27
2019-03-17T03:04:29.020Z,2.33
2019-03-17T03:06:58.318Z,2.80
2019-03-17T03:09:27.810Z,3.00
2019-03-17T03:11:57.230Z,1.30
2019-03-17T03:14:26.518Z,1.73
2019-03-17T03:16:55.818Z,1.77
2019-03-17T03:19:25.308Z,2.03
2019-03-17T03:21:54.621Z,2.43
2019-03-17T03:24:24.069Z,3.23
2019-03-17T03:26:53.461Z,2.90
2019-03-17T03:29:22.771Z,3.50
2019-03-17T03:31:52.097Z,3.47
2019-03-17T03:34:21.463Z,2.40
2019-03-17T03:36:50.842Z,5.40
2019-03-17T03:39:20.291Z,5.27
2019-03-17T03:41:49.694Z,4.97
2019-03-17T03:44:19.164Z,6.30
2019-03-17T03:46:48.523Z,4.77
2019-03-17T03:49:17.869Z,3.13
2019-03-17T03:51:47.272Z,5.63
2019-03-17T03:54:16.596Z,6.60
2019-03-17T03:56:45.934Z,3.60
2019-03-17T03:59:15.223Z,7.53
2019-03-17T04:01:44.564Z,7.47
2019-03-17T04:04:13.917Z,5.63
2019-03-17T04:06:43.212Z,5.10
2019-03-17T04:09:12.537Z,4.73
2019-03-17T04:11:41.952Z,6.90
2019-03-17T04:14:11.201Z,8.73
2019-03-17T04:16:40.640Z,6.73
2019-03-17T04:19:09.987Z,6.77
2019-03-17T04:21:39.315Z,5.37
2019-03-17T04:24:08.698Z,5.77
2019-03-17T04:26:38.039Z,6.83
2019-03-17T04:29:07.358Z,4.57
2019-03-17T04:31:36.643Z,5.27
2019-03-17T04:34:06.059Z,8.50
2019-03-17T04:36:40.507Z,7.07
2019-03-17T04:39:07.726Z,7.43
2019-03-17T04:41:37.052Z,5.57
2019-03-17T04:44:06.446Z,4.60
2019-03-17T04:46:35.907Z,4.90
2019-03-17T04:49:05.254Z,4.17
2019-03-17T04:51:34.494Z,4.10
2019-03-17T04:54:03.947Z,6.67
2019-03-17T04:56:33.404Z,4.37
2019-03-17T04:59:02.758Z,4.00
2019-03-17T05:01:32.124Z,4.50
2019-03-17T05:04:01.491Z,5.90
2019-03-17T05:06:30.857Z,7.27
2019-03-17T05:09:00.129Z,4.90
2019-03-17T05:11:29.534Z,9.73
2019-03-17T05:13:59.057Z,5.70
2019-03-17T05:16:28.491Z,7.77
2019-03-17T05:18:57.977Z,8.70
2019-03-17T05:21:27.472Z,4.50
2019-03-17T05:23:56.918Z,10.70
2019-03-17T05:26:26.444Z,3.90
2019-03-17T05:28:55.969Z,5.73
2019-03-17T05:31:25.393Z,6.23
2019-03-17T05:33:54.853Z,8.90
2019-03-17T05:36:24.400Z,3.53
2019-03-17T05:38:53.921Z,5.27
2019-03-17T05:41:23.406Z,5.80
2019-03-17T05:43:52.831Z,4.27
2019-03-17T05:46:22.239Z,4.80
2019-03-17T05:48:51.565Z,2.30
2019-03-17T05:51:21.039Z,3.00
2019-03-17T05:53:50.512Z,4.67
2019-03-17T05:56:19.998Z,4.47
2019-03-17T05:58:49.572Z,3.37
2019-03-17T06:01:18.994Z,4.90
2019-03-17T06:03:48.444Z,5.47
2019-03-17T06:06:17.889Z,4.93
2019-03-17T06:08:47.371Z,7.60
2019-03-17T06:11:16.819Z,3.47
2019-03-17T06:13:46.309Z,4.57
2019-03-17T06:16:15.806Z,7.63
2019-03-17T06:18:45.290Z,2.93
2019-03-17T06:21:14.775Z,6.77
2019-03-17T06:23:44.206Z,8.17
2019-03-17T06:26:13.614Z,3.80
2019-03-17T06:28:43.171Z,5.53
2019-03-17T06:31:12.657Z,2.73
2019-03-17T06:33:42.181Z,5.47
2019-03-17T06:36:11.633Z,4.93
2019-03-17T06:38:41.099Z,3.63
2019-03-17T06:41:10.479Z,3.77
2019-03-17T06:43:39.997Z,4.67
2019-03-17T06:46:09.390Z,6.70
2019-03-17T06:48:38.873Z,6.33
2019-03-17T06:51:08.363Z,5.20
2019-03-17T06:53:37.856Z,8.93
2019-03-17T06:56:07.312Z,6.03
2019-03-17T06:58:36.789Z,3.70
2019-03-17T07:01:06.135Z,4.40
2019-03-17T07:03:35.489Z,3.60
2019-03-17T07:06:04.996Z,3.93
2019-03-17T07:08:34.384Z,8.43
2019-03-17T07:11:03.756Z,6.53
2019-03-17T07:13:33.046Z,6.03
2019-03-17T07:16:02.342Z,5.40
2019-03-17T07:18:31.695Z,4.97
2019-03-17T07:21:01.054Z,8.37
2019-03-17T07:23:30.453Z,6.67
2019-03-17T07:25:59.838Z,5.17
2019-03-17T07:28:29.150Z,5.40
2019-03-17T07:30:58.528Z,5.23
2019-03-17T07:33:27.906Z,6.03
2019-03-17T07:35:57.280Z,5.37
2019-03-17T07:38:26.672Z,3.97
2019-03-17T07:40:57.346Z,8.53
2019-03-17T07:43:26.683Z,4.93
2019-03-17T07:45:55.955Z,9.07
2019-03-17T07:48:25.370Z,7.20
2019-03-17T07:50:54.695Z,2.33
2019-03-17T07:53:24.103Z,4.70
2019-03-17T07:55:53.473Z,3.73
2019-03-17T07:58:22.819Z,3.83
2019-03-17T08:00:52.186Z,7.93
2019-03-17T08:03:21.479Z,4.90
2019-03-17T08:05:50.859Z,4.13
2019-03-17T08:08:20.215Z,6.33
2019-03-17T08:10:49.506Z,4.83
2019-03-17T08:13:18.815Z,7.27
2019-03-17T08:15:48.136Z,8.03
2019-03-17T08:18:17.427Z,5.43
2019-03-17T08:20:46.708Z,5.40
2019-03-17T08:23:16.095Z,5.00
2019-03-17T08:25:45.373Z,4.97
2019-03-17T08:28:15.620Z,9.43
2019-03-17T08:30:52.930Z,3.57
2019-03-17T08:33:16.013Z,3.97
2019-03-17T08:35:45.341Z,4.03
2019-03-17T08:38:21.783Z,6.40
2019-03-17T08:40:45.611Z,5.07
2019-03-17T08:43:15.046Z,4.20
2019-03-17T08:45:44.415Z,3.60
2019-03-17T08:48:13.807Z,4.83
2019-03-17T08:50:43.268Z,3.07
2019-03-17T08:53:12.697Z,4.70
2019-03-17T08:55:42.010Z,4.83
2019-03-17T08:58:11.314Z,3.23
2019-03-17T09:00:40.681Z,4.10
2019-03-17T09:03:10.045Z,3.83
2019-03-17T09:05:39.380Z,3.93
2019-03-17T09:08:08.631Z,2.73
2019-03-17T09:10:38.033Z,5.27
2019-03-17T09:13:07.396Z,5.00
2019-03-17T09:15:36.782Z,6.83
2019-03-17T09:18:06.020Z,4.53
2019-03-17T09:20:35.463Z,6.07
2019-03-17T09:23:04.840Z,4.40
2019-03-17T09:25:35.119Z,2.93
2019-03-17T09:28:04.433Z,3.67
2019-03-17T09:30:33.707Z,4.90
2019-03-17T09:33:03.087Z,2.50
2019-03-17T09:35:32.466Z,3.97
2019-03-17T09:38:01.860Z,3.30
2019-03-17T09:40:31.172Z,5.60
2019-03-17T09:43:00.599Z,4.17
2019-03-17T09:45:30.011Z,2.43
2019-03-17T09:47:59.298Z,3.63
2019-03-17T09:50:28.587Z,2.47
2019-03-17T09:52:58.282Z,3.87
2019-03-17T09:55:28.310Z,5.27
2019-03-17T09:57:57.837Z,4.20
2019-03-17T10:00:27.676Z,3.80
2019-03-17T10:02:57.234Z,4.70
2019-03-17T10:05:26.651Z,2.27
2019-03-17T10:07:56.054Z,5.27
2019-03-17T10:10:25.425Z,5.37
2019-03-17T10:12:54.712Z,4.43
2019-03-17T10:15:23.966Z,4.27
2019-03-17T10:17:53.274Z,2.37
2019-03-17T10:20:22.544Z,2.47
2019-03-17T10:22:51.903Z,5.37
2019-03-17T10:25:21.185Z,3.17
2019-03-17T10:27:50.475Z,2.57
2019-03-17T10:30:19.800Z,3.57
2019-03-17T10:32:49.124Z,2.80
2019-03-17T10:35:18.447Z,3.10
2019-03-17T10:37:47.710Z,4.37
2019-03-17T10:40:17.075Z,4.03
2019-03-17T10:42:46.520Z,6.97
2019-03-17T10:45:16.048Z,2.10
2019-03-17T10:47:46.972Z,4.83
2019-03-17T10:50:16.398Z,3.87
2019-03-17T10:52:45.775Z,4.13
2019-03-17T10:55:15.269Z,4.23
2019-03-17T10:57:44.599Z,4.43
2019-03-17T11:00:15.126Z,3.17
2019-03-17T11:02:44.511Z,3.53
2019-03-17T11:05:13.977Z,5.50
2019-03-17T11:07:43.328Z,3.33
2019-03-17T11:10:12.823Z,2.80
2019-03-17T11:12:42.210Z,2.17
2019-03-17T11:15:12.928Z,3.80
2019-03-17T11:17:42.209Z,2.70
2019-03-17T11:20:11.523Z,2.63
2019-03-17T11:22:41.214Z,2.50
2019-03-17T11:25:11.675Z,2.53
2019-03-17T11:27:42.084Z,4.23
2019-03-17T11:30:12.130Z,5.67
2019-03-17T11:32:41.916Z,4.00
2019-03-17T11:35:11.721Z,2.03
2019-03-17T11:37:41.272Z,4.00
2019-03-17T11:40:11.857Z,2.63
2019-03-17T11:42:41.195Z,4.67
2019-03-17T11:45:12.245Z,8.07
2019-03-17T11:47:41.630Z,2.73
2019-03-17T11:50:11.802Z,2.87
2019-03-17T11:52:41.254Z,3.73
2019-03-17T11:55:10.736Z,3.07
2019-03-17T11:57:40.025Z,4.23
2019-03-17T12:00:11.378Z,3.73
2019-03-17T12:02:40.698Z,1.50
2019-03-17T12:05:09.974Z,4.03
2019-03-17T12:07:39.288Z,3.57
2019-03-17T12:10:10.698Z,2.53
2019-03-17T12:12:40.019Z,1.30
2019-03-17T12:15:11.132Z,4.03
2019-03-17T12:17:40.539Z,2.23
2019-03-17T12:20:17.266Z,2.80
2019-03-17T12:22:46.833Z,4.13
2019-03-17T12:25:16.252Z,2.60
2019-03-17T12:27:45.938Z,2.10
2019-03-17T12:30:23.909Z,4.27
2019-03-17T12:32:53.449Z,1.90
2019-03-17T12:35:22.878Z,1.63
2019-03-17T12:37:52.380Z,2.53
2019-03-17T12:40:21.767Z,2.87
2019-03-17T12:42:51.138Z,2.87
2019-03-17T12:45:20.544Z,3.60
2019-03-17T12:47:49.918Z,1.67
2019-03-17T12:50:19.367Z,3.73
2019-03-17T12:52:48.760Z,2.50
2019-03-17T12:55:18.191Z,2.27
2019-03-17T12:57:47.586Z,0.80
2019-03-17T13:00:17.245Z,1.73
2019-03-17T13:02:46.596Z,2.43
2019-03-17T13:05:15.943Z,2.80
2019-03-17T13:07:45.447Z,1.47
2019-03-17T13:10:16.448Z,2.27
2019-03-17T13:12:46.168Z,2.73
2019-03-17T13:15:15.629Z,2.10
2019-03-17T13:17:45.003Z,1.57
2019-03-17T13:20:14.508Z,2.40
2019-03-17T13:22:43.893Z,5.07
2019-03-17T13:25:13.384Z,3.03
2019-03-17T13:27:42.768Z,3.07
2019-03-17T13:30:13.014Z,1.17
2019-03-17T13:32:42.443Z,1.53
2019-03-17T13:35:11.946Z,2.90
2019-03-17T13:37:41.379Z,1.60
2019-03-17T13:40:11.757Z,2.27
2019-03-17T13:42:41.231Z,3.30
2019-03-17T13:45:11.673Z,3.70
2019-03-17T13:47:40.922Z,1.10
2019-03-17T13:50:12.236Z,4.07
2019-03-17T13:52:41.669Z,2.10
2019-03-17T13:55:10.992Z,2.83
2019-03-17T13:57:40.394Z,2.23
2019-03-17T14:00:12.471Z,2.37
2019-03-17T14:02:42.274Z,2.73
2019-03-17T14:05:11.846Z,1.83
2019-03-17T14:07:42.287Z,3.07
2019-03-17T14:10:14.607Z,2.67
2019-03-17T14:12:44.359Z,1.03
2019-03-17T14:15:14.121Z,0.97
2019-03-17T14:17:43.434Z,2.00
2019-03-17T14:20:14.698Z,2.00
2019-03-17T14:22:44.118Z,2.30
2019-03-17T14:25:16.200Z,3.43
2019-03-17T14:27:45.695Z,1.03
2019-03-17T14:30:15.936Z,1.30
2019-03-17T14:32:45.426Z,2.93
2019-03-17T14:35:14.929Z,1.40
2019-03-17T14:37:44.448Z,2.20
2019-03-17T14:40:14.396Z,2.33
2019-03-17T14:42:44.000Z,3.73
2019-03-17T14:45:14.231Z,2.87
2019-03-17T14:47:43.723Z,2.10
2019-03-17T14:50:15.234Z,1.43
2019-03-17T14:52:44.799Z,1.50
2019-03-17T14:55:14.240Z,1.27
2019-03-17T14:57:43.739Z,2.23
2019-03-17T15:00:15.307Z,2.60
2019-03-17T15:02:44.735Z,1.20
2019-03-17T15:05:14.315Z,1.40
2019-03-17T15:07:43.855Z,2.57
2019-03-17T15:10:14.970Z,2.93
2019-03-17T15:12:44.501Z,1.67
2019-03-17T15:15:14.838Z,1.97
2019-03-17T15:17:44.259Z,1.97
2019-03-17T15:20:15.369Z,2.27
2019-03-17T15:22:44.864Z,2.03
2019-03-17T15:25:14.349Z,4.53
2019-03-17T15:27:43.768Z,1.73
2019-03-17T15:30:18.253Z,0.80
2019-03-17T15:32:47.669Z,2.50
2019-03-17T15:35:17.159Z,2.40
2019-03-17T15:37:46.690Z,1.13
2019-03-17T15:40:16.284Z,2.80
2019-03-17T15:42:45.790Z,1.10
2019-03-17T15:45:15.982Z,2.73
2019-03-17T15:47:45.390Z,3.23
2019-03-17T15:50:16.026Z,2.80
2019-03-17T15:52:45.523Z,1.70
2019-03-17T15:55:15.039Z,1.90
2019-03-17T15:57:44.596Z,2.17
2019-03-17T16:00:25.059Z,4.00
2019-03-17T16:02:49.938Z,2.90
2019-03-17T16:05:19.837Z,2.10
2019-03-17T16:07:49.843Z,3.53
2019-03-17T16:10:20.112Z,3.57
2019-03-17T16:12:49.617Z,2.93
2019-03-17T16:15:19.328Z,3.63
2019-03-17T16:17:48.783Z,2.57
2019-03-17T16:20:19.614Z,5.03
2019-03-17T16:22:49.069Z,3.83
2019-03-17T16:25:18.891Z,4.13
2019-03-17T16:27:48.436Z,2.20
2019-03-17T16:30:19.663Z,2.17
2019-03-17T16:32:49.409Z,4.03
2019-03-17T16:35:19.163Z,3.67
2019-03-17T16:37:48.723Z,4.10
2019-03-17T16:40:19.586Z,2.73
2019-03-17T16:42:49.095Z,3.20
2019-03-17T16:45:19.199Z,2.10
2019-03-17T16:47:48.734Z,1.80
2019-03-17T16:50:18.449Z,2.47
2019-03-17T16:52:48.258Z,2.13
2019-03-17T16:55:17.860Z,3.50
2019-03-17T16:57:47.327Z,4.00
2019-03-17T17:00:19.244Z,2.93
2019-03-17T17:02:49.022Z,4.00
2019-03-17T17:05:18.541Z,3.27
2019-03-17T17:07:48.060Z,4.40
2019-03-17T17:10:18.156Z,5.53
2019-03-17T17:12:47.962Z,3.73
2019-03-17T17:15:22.137Z,6.10
2019-03-17T17:17:51.579Z,5.97
2019-03-17T17:20:23.137Z,5.17
2019-03-17T17:22:52.755Z,4.43
2019-03-17T17:25:22.233Z,5.40
2019-03-17T17:27:51.798Z,7.20
2019-03-17T17:30:21.551Z,5.70
2019-03-17T17:32:50.954Z,10.43
2019-03-17T17:35:20.443Z,9.63
2019-03-17T17:37:49.931Z,8.13
2019-03-17T17:40:19.378Z,6.10
2019-03-17T17:42:48.906Z,6.37
2019-03-17T17:45:18.770Z,6.23
2019-03-17T17:47:48.308Z,6.63
2019-03-17T17:50:18.156Z,7.37
2019-03-17T17:52:47.727Z,9.00
2019-03-17T17:55:17.148Z,10.13
2019-03-17T17:57:46.627Z,6.60
2019-03-17T18:00:18.877Z,4.60
2019-03-17T18:02:48.551Z,5.03
2019-03-17T18:05:18.198Z,4.43
2019-03-17T18:07:47.670Z,3.57
2019-03-17T18:10:17.142Z,4.63
2019-03-17T18:12:46.589Z,4.87
2019-03-17T18:15:17.716Z,4.90
2019-03-17T18:17:47.139Z,3.63
2019-03-17T18:20:16.588Z,4.47
2019-03-17T18:22:46.330Z,2.70
2019-03-17T18:25:16.010Z,4.40
2019-03-17T18:27:45.487Z,3.73
2019-03-17T18:30:16.012Z,2.10
2019-03-17T18:32:45.383Z,1.90
2019-03-17T18:35:14.800Z,4.17
2019-03-17T18:37:44.418Z,3.13
2019-03-17T18:40:14.346Z,2.20
2019-03-17T18:42:43.731Z,2.13
2019-03-17T18:45:15.119Z,3.07
2019-03-17T18:47:44.771Z,6.30
2019-03-17T18:50:20.110Z,5.27
2019-03-17T18:52:45.255Z,4.90
2019-03-17T18:55:15.190Z,2.47
2019-03-17T18:57:44.693Z,4.20
2019-03-17T19:00:15.694Z,2.97
2019-03-17T19:02:45.102Z,3.63
2019-03-17T19:05:14.533Z,4.73
2019-03-17T19:07:44.028Z,5.70
2019-03-17T19:10:15.077Z,2.83
2019-03-17T19:12:45.633Z,5.23
2019-03-17T19:15:15.656Z,3.60
2019-03-17T19:17:45.104Z,8.57
2019-03-17T19:20:15.120Z,7.67
2019-03-17T19:22:44.898Z,6.13
2019-03-17T19:25:15.031Z,6.00
2019-03-17T19:27:44.409Z,6.03
2019-03-17T19:30:15.303Z,11.23
2019-03-17T19:32:44.639Z,7.57
2019-03-17T19:35:14.064Z,6.63
2019-03-17T19:37:43.553Z,9.47
2019-03-17T19:40:14.003Z,4.77
2019-03-17T19:42:43.508Z,8.97
2019-03-17T19:45:12.902Z,8.20
2019-03-17T19:47:42.339Z,7.53
2019-03-17T19:50:12.719Z,7.97
2019-03-17T19:52:42.040Z,20.10
2019-03-17T19:55:11.951Z,7.10
2019-03-17T19:57:41.198Z,8.33
2019-03-17T20:00:13.081Z,6.53
2019-03-17T20:02:42.750Z,6.83
2019-03-17T20:05:12.040Z,6.37
2019-03-17T20:07:41.664Z,8.10
2019-03-17T20:10:13.114Z,5.77
2019-03-17T20:12:42.459Z,6.03
2019-03-17T20:15:11.801Z,7.67
2019-03-17T20:17:41.147Z,9.10
2019-03-17T20:20:11.147Z,8.00
2019-03-17T20:22:40.572Z,5.67
2019-03-17T20:25:09.942Z,5.57
2019-03-17T20:27:39.287Z,5.47
2019-03-17T20:30:09.638Z,6.57
2019-03-17T20:32:39.363Z,5.83
2019-03-17T20:35:09.679Z,4.57
2019-03-17T20:37:39.110Z,6.23
2019-03-17T20:40:09.711Z,6.33
2019-03-17T20:42:39.017Z,6.87
2019-03-17T20:45:08.627Z,5.60
2019-03-17T20:47:37.993Z,5.67
2019-03-17T20:50:08.091Z,6.90
2019-03-17T20:52:37.686Z,5.20
2019-03-17T20:55:07.362Z,6.30
2019-03-17T20:57:36.737Z,4.80
2019-03-17T21:00:06.819Z,4.90
2019-03-17T21:02:36.213Z,5.00
2019-03-17T21:05:06.031Z,6.43
2019-03-17T21:07:35.576Z,5.27
2019-03-17T21:10:05.252Z,5.57
2019-03-17T21:12:34.569Z,4.80
2019-03-17T21:15:04.050Z,4.43
2019-03-17T21:17:33.303Z,4.53
2019-03-17T21:20:02.682Z,6.47
2019-03-17T21:22:32.026Z,4.97
2019-03-17T21:25:01.726Z,4.53
2019-03-17T21:27:31.122Z,6.17
2019-03-17T21:30:00.483Z,5.87
2019-03-17T21:32:29.943Z,4.30
2019-03-17T21:34:59.245Z,4.37
2019-03-17T21:37:28.558Z,4.27
2019-03-17T21:39:57.879Z,4.37
2019-03-17T21:42:27.189Z,5.97
2019-03-17T21:44:56.555Z,5.83
2019-03-17T21:47:25.812Z,5.97
2019-03-17T21:49:55.108Z,4.33
2019-03-17T21:52:24.456Z,9.80
2019-03-17T21:54:53.777Z,4.30
2019-03-17T21:57:23.141Z,3.90
2019-03-17T21:59:52.459Z,4.77
2019-03-17T22:02:21.888Z,3.47
2019-03-17T22:04:51.275Z,3.70
2019-03-17T22:07:20.631Z,4.13
2019-03-17T22:09:50.017Z,4.33
2019-03-17T22:12:19.340Z,4.37
2019-03-17T22:14:48.593Z,6.30
2019-03-17T22:17:18.037Z,4.47
2019-03-17T22:19:47.363Z,4.73
2019-03-17T22:22:16.682Z,4.27
2019-03-17T22:24:46.123Z,5.03
2019-03-17T22:27:15.430Z,3.63
2019-03-17T22:29:44.987Z,4.97
2019-03-17T22:32:14.276Z,3.83
2019-03-17T22:34:43.546Z,4.10
2019-03-17T22:37:12.899Z,5.37
2019-03-17T22:39:42.291Z,5.67
2019-03-17T22:42:11.552Z,4.70
2019-03-17T22:44:40.836Z,6.63
2019-03-17T22:47:10.151Z,5.50
2019-03-17T22:49:39.663Z,3.20
2019-03-17T22:52:09.201Z,4.70
2019-03-17T22:54:38.471Z,3.43
2019-03-17T22:57:07.831Z,4.50
2019-03-17T22:59:37.122Z,6.10
2019-03-17T23:02:06.606Z,3.83
2019-03-17T23:04:36.051Z,4.50
2019-03-17T23:07:05.413Z,5.53
2019-03-17T23:09:34.788Z,5.00
2019-03-17T23:12:04.202Z,4.30
2019-03-17T23:14:36.905Z,5.03
2019-03-17T23:17:04.642Z,5.77
2019-03-17T23:19:33.951Z,3.40
2019-03-17T23:22:03.283Z,4.80
2019-03-17T23:24:32.825Z,3.50
2019-03-17T23:27:02.242Z,3.67
2019-03-17T23:29:31.689Z,3.60
2019-03-17T23:32:01.022Z,5.37
2019-03-17T23:34:30.333Z,5.67
2019-03-17T23:36:59.806Z,4.33
2019-03-17T23:39:29.266Z,4.10
2019-03-17T23:41:58.632Z,6.60
2019-03-17T23:44:27.926Z,4.00
2019-03-17T23:46:57.289Z,5.20
2019-03-17T23:49:26.808Z,4.00
2019-03-17T23:51:56.133Z,4.57
2019-03-17T23:54:25.491Z,4.57
2019-03-17T23:56:55.844Z,4.63
2019-03-17T23:59:25.140Z,5.90
